Terminal Aerodrome Forecast
Issued by NWS

Home | Current Version | Previous Version | Text Only | Print | Product List | Glossary On
Versions: 1 2 3 4 5 6 7 8 9 10 11 12 13 14 15 16 17 18 19 20 21 22 23 24 25 26 27 28 29 30 31 32 33 34 35 36 37 38 39 40 41 42 43
000
FTUS43 KDMX 291138
TAFOTM
TAF
KOTM 291138Z 2912/3012 33022G30KT P6SM OVC015
      TEMPO 2912/2916 -DZ
     FM300000 32015G22KT P6SM BKN015
     FM300600 33011KT P6SM SCT015=

USA.gov is the U.S. government's official web portal to all federal, state and local government web resources and services.